Time;durP1;ratioP1;P1;durP2;ratioP2;P2;SDS_P1;SDS_P2;PMS_P1;PMS_P2;Temp;Humidity;BMP_temperature;BMP_pressure;BME280_temperature;BME280_humidity;BME280_pressure;Samples;Min_cycle;Max_cycle;Signal;HPM_P1;HPM_P2
2021/12/17 00:01:10;;;;;;;0.00;0.00;;;3.60;91.40;;;;;;4145086;28;20129;-58
2021/12/17 00:03:43;;;;;;;0.00;0.00;;;3.60;91.50;;;;;;4145182;28;20125;-59
2021/12/17 00:08:34;;;;;;;0.00;0.00;;;3.50;91.50;;;;;;4161258;28;20056;-59
2021/12/17 00:10:57;;;;;;;0.00;0.00;;;3.50;91.60;;;;;;4175103;28;20051;-59
2021/12/17 00:13:19;;;;;;;0.00;0.00;;;3.60;91.70;;;;;;4175068;28;20094;-59
2021/12/17 00:15:43;;;;;;;0.00;0.00;;;3.60;91.70;;;;;;4159188;28;20045;-59
2021/12/17 00:18:20;;;;;;;0.00;0.00;;;3.50;91.80;;;;;;4158254;28;21058;-59
2021/12/17 00:40:19;;;;;;;0.00;0.00;;;3.50;91.90;;;;;;4158259;28;20072;-59
2021/12/17 00:53:06;;;;;;;0.00;0.00;;;3.60;92.00;;;;;;4160983;28;20045;-58
2021/12/17 00:55:30;;;;;;;0.00;0.00;;;3.60;92.10;;;;;;4174734;28;20477;-59
2021/12/17 00:57:53;;;;;;;0.00;0.00;;;3.60;92.00;;;;;;4160161;28;20065;-59
2021/12/17 01:00:23;;;;;;;0.00;0.00;;;3.60;92.00;;;;;;4147194;28;20509;-59
2021/12/17 01:02:47;;;;;;;0.00;0.00;;;3.60;92.20;;;;;;4161871;28;20077;-60
2021/12/17 01:05:24;;;;;;;0.00;0.00;;;3.60;91.90;;;;;;4147110;28;20525;-59
2021/12/17 01:07:51;;;;;;;0.00;0.00;;;3.50;91.90;;;;;;4161417;28;20045;-60
2021/12/17 01:10:21;;;;;;;0.00;0.00;;;3.50;92.00;;;;;;4174799;28;20111;-60
2021/12/17 01:12:58;;;;;;;0.00;0.00;;;3.50;91.90;;;;;;4160644;28;20392;-59
2021/12/17 01:15:44;;;;;;;0.00;0.00;;;3.40;92.10;;;;;;4160745;28;20049;-59
2021/12/17 01:18:18;;;;;;;0.00;0.00;;;3.40;91.90;;;;;;4160329;28;20218;-59
2021/12/17 01:21:22;;;;;;;0.00;0.00;;;3.40;91.80;;;;;;4174250;28;20053;-59
2021/12/17 01:35:22;;;;;;;0.00;0.00;;;3.40;91.60;;;;;;4147577;28;20061;-58
2021/12/17 01:43:01;;;;;;;0.00;0.00;;;3.50;91.50;;;;;;4149885;28;20531;-59
2021/12/17 01:45:28;;;;;;;0.00;0.00;;;3.50;91.50;;;;;;4177518;28;20053;-59
2021/12/17 01:47:51;;;;;;;0.00;0.00;;;3.40;91.40;;;;;;4177146;28;20056;-59
2021/12/17 01:56:17;;;;;;;0.00;0.00;;;3.30;91.60;;;;;;4163020;28;20491;-59
2021/12/17 02:01:20;;;;;;;0.00;0.00;;;3.40;91.60;;;;;;4163188;28;20049;-59
2021/12/17 02:03:43;;;;;;;0.00;0.00;;;3.30;91.70;;;;;;4150017;28;20049;-59
2021/12/17 02:06:06;;;;;;;0.00;0.00;;;3.40;91.70;;;;;;4160311;28;22138;-59
2021/12/17 02:08:29;;;;;;;0.00;0.00;;;3.50;91.70;;;;;;4160623;28;20087;-59
2021/12/17 02:23:05;;;;;;;;;;;3.40;91.90;;;;;;4109449;28;20038;-59
2021/12/17 02:30:59;;;;;;;0.00;0.00;;;3.40;91.80;;;;;;4147730;28;20056;-59
2021/12/17 02:33:22;;;;;;;0.00;0.00;;;3.60;91.70;;;;;;4161740;28;20569;-59
2021/12/17 02:35:45;;;;;;;0.00;0.00;;;3.70;91.50;;;;;;4147879;28;20470;-59
2021/12/17 02:38:09;;;;;;;0.00;0.00;;;3.70;91.40;;;;;;4161440;28;20079;-59
2021/12/17 02:46:51;;;;;;;0.00;0.00;;;3.50;91.60;;;;;;4134449;28;20050;-59
2021/12/17 02:49:13;;;;;;;0.00;0.00;;;3.40;91.60;;;;;;4147662;28;20050;-58
2021/12/17 02:51:35;;;;;;;0.00;0.00;;;3.40;91.70;;;;;;4133995;28;20058;-59
2021/12/17 02:53:59;;;;;;;0.00;0.00;;;3.50;91.60;;;;;;4147276;28;20054;-59
2021/12/17 02:56:21;;;;;;;0.00;0.00;;;3.50;91.60;;;;;;4150541;28;20140;-59
2021/12/17 02:58:45;;;;;;;0.00;0.00;;;3.40;91.60;;;;;;4162546;28;20502;-59
2021/12/17 03:01:12;;;;;;;0.00;0.00;;;3.40;91.60;;;;;;4150924;28;20099;-59
2021/12/17 03:03:37;;;;;;;0.00;0.00;;;3.40;91.70;;;;;;4146063;28;20125;-59
2021/12/17 03:05:59;;;;;;;0.00;0.00;;;3.40;91.70;;;;;;4145643;28;20093;-59
2021/12/17 03:08:21;;;;;;;0.00;0.00;;;3.50;91.60;;;;;;4150842;28;20463;-59
2021/12/17 03:10:47;;;;;;;0.00;0.00;;;3.50;91.60;;;;;;4168182;28;20037;-59
2021/12/17 03:13:11;;;;;;;0.00;0.00;;;3.40;91.70;;;;;;4145940;28;20042;-58
2021/12/17 03:23:27;;;;;;;0.00;0.00;;;3.30;91.70;;;;;;4148244;28;20046;-59
2021/12/17 03:25:51;;;;;;;0.00;0.00;;;3.30;91.70;;;;;;4175479;28;20048;-58
2021/12/17 03:28:16;;;;;;;0.00;0.00;;;3.30;91.70;;;;;;4175782;28;20083;-59
2021/12/17 03:30:39;;;;;;;0.00;0.00;;;3.40;91.50;;;;;;4175547;28;20060;-59
2021/12/17 03:33:02;;;;;;;0.00;0.00;;;3.30;91.50;;;;;;4175686;28;20087;-59
2021/12/17 03:35:25;;;;;;;0.00;0.00;;;3.40;91.50;;;;;;4175681;28;20075;-59
2021/12/17 03:37:47;;;;;;;0.00;0.00;;;3.50;91.30;;;;;;4147733;28;20112;-60
2021/12/17 03:40:14;;;;;;;0.00;0.00;;;3.40;91.20;;;;;;4161711;28;20125;-59
2021/12/17 03:42:36;;;;;;;0.00;0.00;;;3.30;91.30;;;;;;4175676;28;20049;-59
2021/12/17 03:44:59;;;;;;;0.00;0.00;;;3.40;91.40;;;;;;4175352;28;20041;-59
2021/12/17 03:48:00;;;;;;;0.00;0.00;;;3.40;91.20;;;;;;4162465;28;20049;-59
2021/12/17 03:50:23;;;;;;;0.00;0.00;;;3.60;91.10;;;;;;4161559;28;20045;-59
2021/12/17 03:52:47;;;;;;;0.00;0.00;;;3.60;90.90;;;;;;4159797;28;20518;-58
2021/12/17 03:55:11;;;;;;;0.00;0.00;;;3.60;90.80;;;;;;4152174;28;20124;-59
2021/12/17 03:57:38;;;;;;;0.00;0.00;;;3.60;90.70;;;;;;4175411;28;20577;-59
2021/12/17 04:00:01;;;;;;;0.00;0.00;;;3.60;90.70;;;;;;4163744;28;20041;-59
2021/12/17 04:02:37;;;;;;;0.00;0.00;;;3.60;90.70;;;;;;4177360;28;20131;-59
2021/12/17 04:05:01;;;;;;;0.00;0.00;;;3.50;90.50;;;;;;4177947;28;20072;-59
2021/12/17 04:07:36;;;;;;;0.00;0.00;;;3.40;90.60;;;;;;4177933;28;20556;-59
2021/12/17 04:10:03;;;;;;;0.00;0.00;;;3.40;90.70;;;;;;4177288;28;20636;-60
2021/12/17 04:12:42;;;;;;;0.00;0.00;;;3.40;90.80;;;;;;4163759;28;20076;-59
2021/12/17 04:15:08;;;;;;;0.00;0.00;;;3.50;90.70;;;;;;4177724;28;20095;-59
2021/12/17 04:17:40;;;;;;;0.00;0.00;;;3.70;90.50;;;;;;4163917;28;20056;-59
2021/12/17 04:20:03;;;;;;;0.00;0.00;;;3.70;90.40;;;;;;4177333;28;20103;-59
2021/12/17 04:22:26;;;;;;;0.00;0.00;;;3.60;90.40;;;;;;4150255;28;20052;-59
2021/12/17 04:24:49;;;;;;;0.00;0.00;;;3.60;90.30;;;;;;4163798;28;20045;-59
2021/12/17 04:27:11;;;;;;;0.00;0.00;;;3.50;90.40;;;;;;4177761;28;20041;-59
2021/12/17 04:29:40;;;;;;;0.00;0.00;;;3.50;90.40;;;;;;4163631;28;20063;-59
2021/12/17 04:32:04;;;;;;;0.00;0.00;;;3.60;90.50;;;;;;4177029;28;20041;-59
2021/12/17 04:34:29;;;;;;;0.00;0.00;;;3.50;90.40;;;;;;4177694;28;20107;-59
2021/12/17 04:36:55;;;;;;;0.00;0.00;;;3.50;90.50;;;;;;4163643;28;20406;-59
2021/12/17 04:39:29;;;;;;;0.00;0.00;;;3.50;90.50;;;;;;4177555;28;20486;-59
2021/12/17 04:41:57;;;;;;;0.00;0.00;;;3.60;90.50;;;;;;4163078;28;20060;-59
2021/12/17 04:44:25;;;;;;;0.00;0.00;;;3.70;90.40;;;;;;4177282;28;20041;-59
2021/12/17 04:57:32;;;;;;;0.00;0.00;;;3.80;90.20;;;;;;4177406;28;19924;-58
2021/12/17 05:00:01;;;;;;;0.00;0.00;;;3.70;90.20;;;;;;4163018;28;20053;-59
2021/12/17 05:02:25;;;;;;;0.00;0.00;;;3.70;90.40;;;;;;4163417;28;20096;-60
2021/12/17 05:05:04;;;;;;;0.00;0.00;;;3.70;90.30;;;;;;4164999;28;20475;-59
2021/12/17 05:07:28;;;;;;;0.00;0.00;;;3.70;90.30;;;;;;4180746;28;20052;-59
2021/12/17 05:10:04;;;;;;;0.00;0.00;;;3.50;90.40;;;;;;4180048;28;20044;-59
2021/12/17 05:20:44;;;;;;;0.00;0.00;;;3.70;90.50;;;;;;4166689;28;20382;-60
2021/12/17 05:23:07;;;;;;;0.00;0.00;;;3.70;90.20;;;;;;4166829;28;20446;-59
2021/12/17 05:25:30;;;;;;;0.00;0.00;;;3.70;90.40;;;;;;4180371;28;20037;-59
2021/12/17 05:27:55;;;;;;;0.00;0.00;;;3.60;90.50;;;;;;4180213;28;20053;-59
2021/12/17 05:30:18;;;;;;;0.00;0.00;;;3.80;90.50;;;;;;4180310;28;20639;-59
2021/12/17 05:32:40;;;;;;;0.00;0.00;;;3.80;90.20;;;;;;4180358;28;20053;-59
2021/12/17 05:35:04;;;;;;;0.00;0.00;;;3.80;90.30;;;;;;4180663;28;20140;-58
2021/12/17 05:37:26;;;;;;;0.00;0.00;;;3.70;90.40;;;;;;4166427;28;20049;-59
2021/12/17 05:39:49;;;;;;;0.00;0.00;;;3.50;90.60;;;;;;4179658;28;20041;-59
2021/12/17 05:42:11;;;;;;;0.00;0.00;;;3.50;90.80;;;;;;4166149;28;20069;-59
2021/12/17 05:44:55;;;;;;;0.00;0.00;;;3.40;90.90;;;;;;4180159;28;20055;-59
2021/12/17 05:47:17;;;;;;;0.00;0.00;;;3.40;91.00;;;;;;4166328;28;20041;-61
2021/12/17 05:49:40;;;;;;;0.00;0.00;;;3.30;91.00;;;;;;4166263;28;20072;-58
2021/12/17 05:52:03;;;;;;;0.00;0.00;;;3.30;91.10;;;;;;4165674;28;20076;-61
2021/12/17 05:54:27;;;;;;;0.00;0.00;;;3.30;91.20;;;;;;4193888;28;20045;-59
2021/12/17 05:56:52;;;;;;;0.00;0.00;;;3.30;91.20;;;;;;4180108;28;20068;-59
2021/12/17 05:59:16;;;;;;;0.00;0.00;;;3.20;91.30;;;;;;4166274;28;20073;-58
2021/12/17 06:01:39;;;;;;;0.00;0.00;;;3.20;91.30;;;;;;4179887;28;20067;-59
2021/12/17 06:04:02;;;;;;;0.00;0.00;;;3.10;91.50;;;;;;4165624;28;20060;-59
2021/12/17 06:06:35;;;;;;;0.00;0.00;;;3.20;91.50;;;;;;4180053;28;20793;-59
2021/12/17 06:09:03;;;;;;;0.00;0.00;;;3.10;91.50;;;;;;4179773;28;20052;-59
2021/12/17 06:11:26;;;;;;;0.00;0.00;;;3.10;91.60;;;;;;4179672;28;20053;-59
2021/12/17 06:13:49;;;;;;;0.00;0.00;;;3.00;91.80;;;;;;4179436;28;20147;-59
2021/12/17 06:16:13;;;;;;;0.00;0.00;;;3.00;91.80;;;;;;4166148;28;20052;-58
2021/12/17 06:18:35;;;;;;;0.00;0.00;;;3.10;91.80;;;;;;4165334;28;20448;-55
2021/12/17 06:20:58;;;;;;;0.00;0.00;;;3.10;91.70;;;;;;4179527;28;20091;-59
2021/12/17 06:23:20;;;;;;;0.00;0.00;;;3.20;91.70;;;;;;4165868;28;20084;-58
2021/12/17 06:25:42;;;;;;;0.00;0.00;;;3.10;91.70;;;;;;4165766;28;20462;-53
2021/12/17 06:28:05;;;;;;;0.00;0.00;;;3.10;91.90;;;;;;4179176;28;20052;-57
2021/12/17 06:30:29;;;;;;;0.00;0.00;;;3.10;92.00;;;;;;4165107;28;20049;-56
2021/12/17 06:32:54;;;;;;;0.00;0.00;;;3.00;92.20;;;;;;4165383;28;20495;-56
2021/12/17 06:35:23;;;;;;;0.00;0.00;;;3.00;92.30;;;;;;4179448;28;20071;-57
2021/12/17 06:37:45;;;;;;;0.00;0.00;;;3.10;92.20;;;;;;4165465;28;20058;-52
2021/12/17 06:40:17;;;;;;;0.00;0.00;;;3.10;92.10;;;;;;4178940;28;20048;-56
2021/12/17 06:42:41;;;;;;;0.00;0.00;;;3.10;92.10;;;;;;4165625;28;20045;-52
2021/12/17 06:45:12;;;;;;;0.00;0.00;;;3.10;92.10;;;;;;4165405;28;20046;-56
2021/12/17 06:47:37;;;;;;;0.00;0.00;;;3.20;92.00;;;;;;4165498;28;20056;-55
2021/12/17 06:56:02;;;;;;;0.00;0.00;;;3.30;91.90;;;;;;4165245;28;20612;-59
2021/12/17 07:10:30;;;;;;;0.00;0.00;;;3.00;90.90;;;;;;4158437;28;20045;-56
2021/12/17 07:19:01;;;;;;;0.00;0.00;;;2.80;90.80;;;;;;4164674;28;20041;-58
2021/12/17 07:40:26;;;;;;;0.00;0.00;;;3.20;90.80;;;;;;4164268;28;20403;-56
2021/12/17 07:42:49;;;;;;;0.00;0.00;;;3.30;90.90;;;;;;4178205;28;20048;-55
2021/12/17 07:45:20;;;;;;;0.00;0.00;;;3.30;90.80;;;;;;4164367;28;20046;-57
2021/12/17 07:47:52;;;;;;;0.00;0.00;;;3.40;90.80;;;;;;4177937;28;20053;-58
2021/12/17 07:50:14;;;;;;;0.00;0.00;;;3.60;90.80;;;;;;4178490;28;20391;-57
2021/12/17 07:52:52;;;;;;;0.00;0.00;;;3.80;90.50;;;;;;4178127;28;20053;-58
2021/12/17 07:55:14;;;;;;;0.00;0.00;;;4.10;90.40;;;;;;4164307;28;20499;-56
2021/12/17 07:57:38;;;;;;;0.00;0.00;;;4.20;90.40;;;;;;4178036;28;20421;-58
2021/12/17 08:00:00;;;;;;;0.00;0.00;;;4.20;90.50;;;;;;4177762;28;20055;-58
2021/12/17 08:02:25;;;;;;;0.00;0.00;;;4.30;90.50;;;;;;4177935;28;20037;-58
2021/12/17 08:05:03;;;;;;;0.00;0.00;;;4.30;90.60;;;;;;4164143;28;20049;-58
2021/12/17 08:07:27;;;;;;;0.00;0.00;;;4.30;90.80;;;;;;4177921;28;20045;-58
2021/12/17 08:09:50;;;;;;;0.00;0.00;;;4.50;90.50;;;;;;4163650;28;20483;-58
2021/12/17 08:12:13;;;;;;;0.00;0.00;;;4.50;90.60;;;;;;4164078;28;20604;-57
2021/12/17 08:14:52;;;;;;;0.00;0.00;;;4.40;90.70;;;;;;4178092;28;20474;-58
2021/12/17 08:32:46;;;;;;;0.00;0.00;;;4.60;90.50;;;;;;4176660;28;20044;-60
2021/12/17 08:35:11;;;;;;;0.00;0.00;;;4.60;90.60;;;;;;4163458;28;20037;-59
2021/12/17 08:37:35;;;;;;;0.00;0.00;;;4.80;90.10;;;;;;4163705;28;20055;-59
2021/12/17 08:40:00;;;;;;;0.00;0.00;;;4.70;90.00;;;;;;4162923;28;20491;-59
2021/12/17 08:42:28;;;;;;;0.00;0.00;;;4.70;89.40;;;;;;4177295;28;20073;-59
2021/12/17 08:44:52;;;;;;;0.00;0.00;;;4.40;90.00;;;;;;4163862;28;20559;-59
2021/12/17 08:47:36;;;;;;;0.00;0.00;;;4.10;90.40;;;;;;4177490;28;20099;-61
2021/12/17 08:50:05;;;;;;;0.00;0.00;;;4.10;90.40;;;;;;4177046;28;20053;-60
2021/12/17 08:52:30;;;;;;;0.00;0.00;;;4.00;90.50;;;;;;4177212;28;20056;-60
2021/12/17 08:54:52;;;;;;;0.00;0.00;;;3.90;90.60;;;;;;4163637;28;20045;-60
2021/12/17 08:57:15;;;;;;;0.00;0.00;;;4.00;90.30;;;;;;4163688;28;20041;-59
2021/12/17 08:59:38;;;;;;;0.00;0.00;;;3.90;90.30;;;;;;4177567;28;20152;-59
2021/12/17 09:02:06;;;;;;;0.00;0.00;;;3.90;90.40;;;;;;4176882;28;20068;-58
2021/12/17 09:04:32;;;;;;;0.00;0.00;;;4.00;90.40;;;;;;4177506;28;20099;-59
2021/12/17 09:06:58;;;;;;;0.00;0.00;;;3.90;90.40;;;;;;4163387;28;20132;-60
2021/12/17 09:09:22;;;;;;;0.00;0.00;;;4.00;90.40;;;;;;4163507;28;20050;-58
2021/12/17 09:11:45;;;;;;;0.00;0.00;;;4.10;90.40;;;;;;4191007;28;20072;-59
2021/12/17 09:14:19;;;;;;;0.00;0.00;;;4.10;90.30;;;;;;4177004;28;20517;-60
2021/12/17 09:16:48;;;;;;;0.00;0.00;;;3.90;90.50;;;;;;4178356;28;20478;-58
2021/12/17 09:19:13;;;;;;;0.00;0.00;;;3.90;90.60;;;;;;4163222;28;20099;-60
2021/12/17 09:21:42;;;;;;;0.00;0.00;;;4.00;90.60;;;;;;4163312;28;20041;-58
2021/12/17 09:24:25;;;;;;;0.00;0.00;;;3.90;90.70;;;;;;4176928;28;20055;-60
2021/12/17 09:27:13;;;;;;;0.00;0.00;;;3.80;90.70;;;;;;4177327;28;20049;-57
2021/12/17 09:29:58;;;;;;;0.00;0.00;;;3.80;90.90;;;;;;4169625;28;20437;-57
2021/12/17 09:32:21;;;;;;;0.00;0.00;;;3.90;90.60;;;;;;4176944;28;20079;-57
2021/12/17 09:34:44;;;;;;;0.00;0.00;;;3.90;90.70;;;;;;4177182;28;20128;-59
2021/12/17 09:37:07;;;;;;;0.00;0.00;;;3.90;90.80;;;;;;4190798;28;20044;-57
2021/12/17 09:39:29;;;;;;;0.00;0.00;;;3.90;90.80;;;;;;4177037;28;20521;-59
2021/12/17 09:41:53;;;;;;;0.00;0.00;;;3.90;90.40;;;;;;4146586;28;20049;-56
2021/12/17 09:44:18;;;;;;;0.00;0.00;;;3.90;90.20;;;;;;4174540;28;20083;-59
2021/12/17 09:46:44;;;;;;;0.00;0.00;;;3.80;90.10;;;;;;4160398;28;20037;-59
2021/12/17 09:49:11;;;;;;;0.00;0.00;;;3.90;90.30;;;;;;4160562;28;20521;-57
2021/12/17 09:51:34;;;;;;;0.00;0.00;;;3.80;90.40;;;;;;4161132;28;20134;-58
2021/12/17 09:53:58;;;;;;;0.00;0.00;;;3.80;90.40;;;;;;4163235;28;20065;-58
2021/12/17 09:56:20;;;;;;;0.00;0.00;;;3.80;90.40;;;;;;4163650;28;20099;-58
2021/12/17 09:58:43;;;;;;;0.00;0.00;;;3.80;90.30;;;;;;4149840;28;20067;-57
2021/12/17 10:01:05;;;;;;;0.00;0.00;;;3.80;90.20;;;;;;4163431;28;20483;-58
2021/12/17 10:03:29;;;;;;;0.00;0.00;;;3.80;90.40;;;;;;4163411;28;20049;-57
2021/12/17 10:05:51;;;;;;;0.00;0.00;;;3.80;90.40;;;;;;4164998;28;20053;-57
2021/12/17 10:08:19;;;;;;;0.00;0.00;;;3.80;90.30;;;;;;4163542;28;20845;-57
2021/12/17 10:10:53;;;;;;;0.00;0.00;;;3.90;90.50;;;;;;4163272;28;20418;-58
2021/12/17 10:13:25;;;;;;;0.00;0.00;;;3.90;90.10;;;;;;4163471;28;20111;-56
2021/12/17 10:15:55;;;;;;;0.00;0.00;;;4.00;90.30;;;;;;4179337;28;20061;-58
2021/12/17 10:18:29;;;;;;;0.00;0.00;;;4.10;90.10;;;;;;4150030;28;20092;-59
2021/12/17 10:20:56;;;;;;;0.00;0.00;;;4.20;90.00;;;;;;4162982;28;20050;-57
2021/12/17 10:23:21;;;;;;;0.00;0.00;;;4.30;89.70;;;;;;4163153;28;20140;-63
2021/12/17 10:25:44;;;;;;;0.00;0.00;;;4.30;89.40;;;;;;4163116;28;20069;-64
2021/12/17 10:28:07;;;;;;;0.00;0.00;;;4.30;89.20;;;;;;4178992;28;20051;-66
2021/12/17 10:30:33;;;;;;;0.00;0.00;;;4.50;89.10;;;;;;4179430;28;20049;-62
2021/12/17 10:32:59;;;;;;;0.00;0.00;;;4.60;88.70;;;;;;4179332;28;20052;-70
2021/12/17 10:35:33;;;;;;;0.00;0.00;;;4.50;88.80;;;;;;4179451;28;20268;-62
2021/12/17 10:38:00;;;;;;;0.00;0.00;;;4.60;88.80;;;;;;4179270;28;20068;-65
2021/12/17 10:40:36;;;;;;;0.00;0.00;;;4.60;88.00;;;;;;4179282;28;20048;-66
2021/12/17 10:43:14;;;;;;;0.00;0.00;;;4.40;88.40;;;;;;4179044;28;20121;-68
2021/12/17 10:45:56;;;;;;;0.00;0.00;;;4.50;88.70;;;;;;4179323;28;20127;-67
2021/12/17 10:48:32;;;;;;;0.00;0.00;;;4.50;88.50;;;;;;4164941;28;20049;-61
2021/12/17 10:51:01;;;;;;;0.00;0.00;;;4.50;88.70;;;;;;4178952;28;20057;-68
2021/12/17 10:53:25;;;;;;;0.00;0.00;;;4.60;88.40;;;;;;4179126;28;20520;-66
2021/12/17 10:55:47;;;;;;;0.00;0.00;;;4.80;87.70;;;;;;4164917;28;20087;-63
2021/12/17 10:58:10;;;;;;;0.00;0.00;;;4.90;87.50;;;;;;4178899;28;20071;-67
2021/12/17 11:00:33;;;;;;;0.00;0.00;;;4.80;87.50;;;;;;4179034;28;20052;-63
2021/12/17 11:03:03;;;;;;;0.00;0.00;;;4.80;87.50;;;;;;4178573;28;20060;-63
2021/12/17 11:05:33;;;;;;;0.00;0.00;;;4.80;88.10;;;;;;4179069;28;20115;-62
2021/12/17 11:07:56;;;;;;;0.00;0.00;;;4.80;88.10;;;;;;4175977;28;20490;-64
2021/12/17 11:10:31;;;;;;;0.00;0.00;;;4.80;88.40;;;;;;4162381;28;20053;-66
2021/12/17 11:12:54;;;;;;;0.00;0.00;;;4.90;88.50;;;;;;4162602;28;20719;-63
2021/12/17 11:15:19;;;;;;;0.00;0.00;;;4.90;87.80;;;;;;4162337;28;20046;-67
2021/12/17 11:17:45;;;;;;;0.00;0.00;;;4.80;87.90;;;;;;4162442;28;20123;-65
2021/12/17 11:20:22;;;;;;;0.00;0.00;;;4.70;88.30;;;;;;4178391;28;20076;-66
2021/12/17 11:22:48;;;;;;;0.00;0.00;;;4.70;88.60;;;;;;4178718;28;20045;-62
2021/12/17 11:25:12;;;;;;;0.00;0.00;;;4.80;88.60;;;;;;4164970;28;20053;-66
2021/12/17 11:27:35;;;;;;;0.00;0.00;;;4.70;88.50;;;;;;4178700;28;20045;-66
2021/12/17 11:29:58;;;;;;;0.00;0.00;;;4.80;88.40;;;;;;4178201;28;20103;-67
2021/12/17 11:32:23;;;;;;;0.00;0.00;;;4.80;88.00;;;;;;4164768;28;20412;-64
2021/12/17 11:34:45;;;;;;;0.00;0.00;;;4.70;88.30;;;;;;4178702;28;20934;-66
2021/12/17 11:37:09;;;;;;;0.00;0.00;;;4.60;88.40;;;;;;4178300;28;20110;-62
2021/12/17 11:39:33;;;;;;;0.00;0.00;;;4.60;88.50;;;;;;4151271;28;20037;-62
2021/12/17 11:42:18;;;;;;;0.00;0.00;;;4.70;88.50;;;;;;4161591;28;20059;-64
2021/12/17 11:44:42;;;;;;;0.00;0.00;;;4.70;88.40;;;;;;4161770;28;20051;-65
2021/12/17 11:47:10;;;;;;;0.00;0.00;;;4.80;88.70;;;;;;4161979;28;20041;-62
2021/12/17 11:49:45;;;;;;;0.00;0.00;;;4.70;88.30;;;;;;4161798;28;20041;-67
2021/12/17 11:52:08;;;;;;;0.00;0.00;;;4.80;88.50;;;;;;4177735;28;20037;-67
2021/12/17 11:54:33;;;;;;;0.00;0.00;;;4.80;88.30;;;;;;4178215;28;20068;-68
2021/12/17 11:57:17;;;;;;;0.00;0.00;;;5.00;87.80;;;;;;4178353;28;20036;-66
2021/12/17 11:59:45;;;;;;;0.00;0.00;;;5.10;87.30;;;;;;4178090;28;20057;-67
2021/12/17 12:02:25;;;;;;;0.00;0.00;;;5.00;87.00;;;;;;4191847;28;20052;-66
2021/12/17 12:04:57;;;;;;;0.00;0.00;;;5.20;86.90;;;;;;4164618;28;20048;-66
2021/12/17 12:07:33;;;;;;;0.00;0.00;;;5.20;86.20;;;;;;4164826;28;20140;-65
2021/12/17 12:10:11;;;;;;;0.00;0.00;;;5.20;85.90;;;;;;4177559;28;20203;-66
2021/12/17 12:12:42;;;;;;;0.00;0.00;;;5.40;85.90;;;;;;4177862;28;20057;-66
2021/12/17 12:15:16;;;;;;;0.00;0.00;;;5.40;85.70;;;;;;4177145;28;20045;-67
2021/12/17 12:17:57;;;;;;;0.00;0.00;;;5.50;85.40;;;;;;4178016;28;20045;-63
2021/12/17 12:20:49;;;;;;;0.00;0.00;;;5.60;85.30;;;;;;4161091;28;20055;-63
2021/12/17 12:23:19;;;;;;;0.00;0.00;;;5.40;85.40;;;;;;4161398;28;20450;-64
2021/12/17 12:25:42;;;;;;;0.00;0.00;;;5.50;85.80;;;;;;4161175;28;20049;-63
2021/12/17 12:28:04;;;;;;;0.00;0.00;;;5.70;85.60;;;;;;4174639;28;20562;-62
2021/12/17 12:30:43;;;;;;;0.00;0.00;;;5.80;85.50;;;;;;4161423;28;20053;-63
2021/12/17 12:33:10;;;;;;;0.00;0.00;;;5.70;85.50;;;;;;4161299;28;20524;-62
2021/12/17 12:35:33;;;;;;;0.00;0.00;;;5.80;85.40;;;;;;4161210;28;20498;-62
2021/12/17 12:38:15;;;;;;;0.00;0.00;;;5.70;85.20;;;;;;4160806;28;20057;-61
2021/12/17 12:40:44;;;;;;;0.00;0.00;;;5.40;85.20;;;;;;4161046;28;20049;-61
2021/12/17 12:43:25;;;;;;;0.00;0.00;;;5.20;85.60;;;;;;4161284;28;20053;-62
2021/12/17 12:45:48;;;;;;;;;;;5.20;86.20;;;;;;4177316;28;20063;-62
2021/12/17 12:48:32;;;;;;;0.00;0.00;;;5.30;86.10;;;;;;4161108;28;20398;-61
2021/12/17 12:51:15;;;;;;;0.00;0.00;;;5.40;85.70;;;;;;4160761;28;20068;-62
2021/12/17 12:53:37;;;;;;;0.00;0.00;;;5.50;85.80;;;;;;4161093;28;20057;-62
2021/12/17 12:56:07;;;;;;;0.00;0.00;;;5.60;85.40;;;;;;4177120;28;20079;-61
2021/12/17 12:58:37;;;;;;;0.00;0.00;;;5.70;85.10;;;;;;4177558;28;20045;-61
2021/12/17 13:01:02;;;;;;;0.00;0.00;;;5.80;85.00;;;;;;4177307;28;20041;-62
2021/12/17 13:03:37;;;;;;;0.00;0.00;;;5.60;84.60;;;;;;4177519;28;20044;-61
2021/12/17 13:06:01;;;;;;;0.00;0.00;;;5.50;84.90;;;;;;4177086;28;20425;-62
2021/12/17 13:08:25;;;;;;;0.00;0.00;;;5.50;84.80;;;;;;4177397;28;20106;-61
2021/12/17 13:10:55;;;;;;;0.00;0.00;;;5.40;85.00;;;;;;4177381;28;20049;-61
2021/12/17 13:20:54;;;;;;;0.00;0.00;;;5.20;85.90;;;;;;4191133;28;20078;-62
2021/12/17 13:23:20;;;;;;;0.00;0.00;;;5.10;85.90;;;;;;4177273;28;20049;-63
2021/12/17 13:26:04;;;;;;;0.00;0.00;;;4.90;86.30;;;;;;4176695;28;20132;-63
2021/12/17 13:28:27;;;;;;;0.00;0.00;;;4.90;86.70;;;;;;4180603;28;20045;-62
2021/12/17 13:30:57;;;;;;;0.00;0.00;;;4.80;86.90;;;;;;4180306;28;20072;-62
2021/12/17 13:33:21;;;;;;;0.00;0.00;;;4.80;87.10;;;;;;4180434;28;20453;-62
2021/12/17 13:35:46;;;;;;;0.00;0.00;;;4.90;86.70;;;;;;4180375;28;20045;-64
2021/12/17 13:38:11;;;;;;;0.00;0.00;;;4.80;86.40;;;;;;4194016;28;20041;-62
2021/12/17 13:40:36;;;;;;;0.00;0.00;;;4.70;86.80;;;;;;4180045;28;20045;-63
2021/12/17 13:43:00;;;;;;;0.00;0.00;;;4.60;87.20;;;;;;4180288;28;20041;-64
2021/12/17 13:45:23;;;;;;;0.00;0.00;;;4.60;87.50;;;;;;4166501;28;20091;-63
2021/12/17 13:47:56;;;;;;;0.00;0.00;;;4.60;87.70;;;;;;4180353;28;20103;-65
2021/12/17 13:50:23;;;;;;;0.00;0.00;;;4.70;87.50;;;;;;4179666;28;20106;-63
2021/12/17 13:52:47;;;;;;;0.00;0.00;;;4.80;87.30;;;;;;4180192;28;20111;-65
2021/12/17 13:55:13;;;;;;;0.00;0.00;;;4.70;87.10;;;;;;4180265;28;20037;-63
2021/12/17 13:57:35;;;;;;;0.00;0.00;;;4.70;87.20;;;;;;4179931;28;20600;-64
2021/12/17 14:00:20;;;;;;;0.00;0.00;;;4.70;87.20;;;;;;4165755;28;20571;-62
2021/12/17 14:02:46;;;;;;;0.00;0.00;;;4.90;86.90;;;;;;4180246;28;20072;-66
2021/12/17 14:05:16;;;;;;;0.00;0.00;;;4.90;86.60;;;;;;4180047;28;20166;-66
2021/12/17 14:07:40;;;;;;;0.00;0.00;;;4.90;86.60;;;;;;4180008;28;20057;-63
2021/12/17 14:10:29;;;;;;;0.00;0.00;;;4.80;86.70;;;;;;4163268;28;20053;-67
2021/12/17 14:12:52;;;;;;;0.00;0.00;;;4.70;86.60;;;;;;4163441;28;20060;-66
2021/12/17 14:15:35;;;;;;;0.00;0.00;;;4.70;87.00;;;;;;4177235;28;20045;-64
2021/12/17 14:18:03;;;;;;;0.00;0.00;;;4.80;87.10;;;;;;4163074;28;20069;-64
2021/12/17 14:20:28;;;;;;;0.00;0.00;;;4.70;86.80;;;;;;4171567;28;20159;-66
2021/12/17 14:22:59;;;;;;;0.00;0.00;;;4.60;87.50;;;;;;4170742;28;20140;-65
2021/12/17 14:25:36;;;;;;;0.00;0.00;;;4.50;87.80;;;;;;4150165;28;20047;-62
2021/12/17 14:28:03;;;;;;;0.00;0.00;;;4.50;88.40;;;;;;4177726;28;20045;-69
2021/12/17 14:30:35;;;;;;;0.00;0.00;;;4.50;88.20;;;;;;4163316;28;20116;-65
2021/12/17 14:33:05;;;;;;;0.00;0.00;;;4.60;88.30;;;;;;4149342;28;20144;-71
2021/12/17 14:36:11;;;;;;;0.00;0.00;;;4.70;88.10;;;;;;4163048;28;20132;-68
2021/12/17 14:38:37;;;;;;;0.00;0.00;;;4.80;87.90;;;;;;4168047;28;20037;-69
2021/12/17 14:41:02;;;;;;;0.00;0.00;;;4.90;87.20;;;;;;4179052;28;20076;-69
2021/12/17 14:43:32;;;;;;;0.00;0.00;;;5.00;87.10;;;;;;4179141;28;20052;-69
2021/12/17 14:46:02;;;;;;;0.00;0.00;;;5.10;87.10;;;;;;4176430;28;20056;-67
2021/12/17 14:48:37;;;;;;;0.00;0.00;;;5.10;86.80;;;;;;4162791;28;20049;-67
2021/12/17 15:01:51;;;;;;;0.00;0.00;;;4.90;86.80;;;;;;4178834;28;20052;-68
2021/12/17 15:04:13;;;;;;;0.00;0.00;;;4.90;86.70;;;;;;4152031;28;20048;-66
2021/12/17 15:06:35;;;;;;;0.00;0.00;;;5.10;86.60;;;;;;4179019;28;20049;-67
2021/12/17 15:08:59;;;;;;;0.00;0.00;;;5.10;86.40;;;;;;4178816;28;20052;-68
2021/12/17 15:11:36;;;;;;;0.00;0.00;;;5.10;86.40;;;;;;4178617;28;20056;-67
2021/12/17 15:13:58;;;;;;;0.00;0.00;;;5.20;86.30;;;;;;4162010;28;20443;-69
2021/12/17 15:16:21;;;;;;;0.00;0.00;;;5.20;86.10;;;;;;4148792;28;20056;-67
2021/12/17 15:18:43;;;;;;;0.00;0.00;;;5.20;86.30;;;;;;4162160;28;20061;-68
2021/12/17 15:21:06;;;;;;;0.00;0.00;;;5.20;86.40;;;;;;4148458;28;20051;-70
2021/12/17 15:23:28;;;;;;;0.00;0.00;;;5.20;86.50;;;;;;4148701;28;20139;-67
2021/12/17 15:25:52;;;;;;;0.00;0.00;;;5.10;86.60;;;;;;4178322;28;20103;-67
2021/12/17 15:28:17;;;;;;;0.00;0.00;;;5.00;87.10;;;;;;4178940;28;20159;-72
2021/12/17 15:30:47;;;;;;;0.00;0.00;;;4.80;87.30;;;;;;4164650;28;20114;-68
2021/12/17 15:33:11;;;;;;;0.00;0.00;;;4.70;87.80;;;;;;4164900;28;20053;-67
2021/12/17 15:35:34;;;;;;;0.00;0.00;;;4.60;88.10;;;;;;4178567;28;20053;-67
2021/12/17 15:37:58;;;;;;;0.00;0.00;;;4.60;87.90;;;;;;4161447;28;20054;-67
2021/12/17 15:40:26;;;;;;;0.00;0.00;;;4.70;87.70;;;;;;4149207;28;20521;-67
2021/12/17 15:42:49;;;;;;;0.00;0.00;;;4.80;87.60;;;;;;4157076;28;20136;-67
2021/12/17 15:45:12;;;;;;;0.00;0.00;;;4.90;87.20;;;;;;4166807;28;20041;-66
2021/12/17 15:47:35;;;;;;;0.00;0.00;;;4.80;87.30;;;;;;4161820;28;20124;-67
2021/12/17 15:49:57;;;;;;;0.00;0.00;;;4.70;87.70;;;;;;4147929;28;20127;-67
2021/12/17 15:52:24;;;;;;;0.00;0.00;;;4.60;87.90;;;;;;4161578;28;20033;-67
2021/12/17 15:54:47;;;;;;;0.00;0.00;;;4.70;88.00;;;;;;4148246;28;20038;-67
2021/12/17 15:57:10;;;;;;;0.00;0.00;;;4.60;88.20;;;;;;4161751;28;20045;-67
2021/12/17 15:59:33;;;;;;;0.00;0.00;;;4.60;88.40;;;;;;4161810;28;20049;-67
2021/12/17 16:01:57;;;;;;;0.00;0.00;;;4.40;88.70;;;;;;4161136;28;20045;-68
2021/12/17 16:04:19;;;;;;;0.00;0.00;;;4.30;89.50;;;;;;4154609;28;20452;-68